Impacts METAR Board INFO
IDs:

KDEN - Denver Intl, CO, US

Updated at: 0434 UTC 22 Jan 2018
Potential Impact None Slight Moderate High
Time21/16Z 21/17Z 21/18Z 21/19Z 21/20Z 21/21Z 21/22Z 21/23Z 22/00Z 22/01Z 22/02Z 22/03Z 22/04Z
VIS0.5 0.5 0.5 0.5 0.5 0.5 1 1.5 1.75 5 9 10 10
CIG12 13 12 12 14 14 12 15 36 40 45 55 44
CoverOVXOVCOVCOVCOVCOVCOVCOVCOVCOVCOVCOVCOVC
FltCatLIFRLIFRLIFRLIFRLIFRLIFRIFRIFRIFRMVFRVFRVFRVFR
WXSN FZFG-SN FZFGSN FZFG-SN BR-SN FZFG-SN FZFG-SN BR-SN BR-SN-SN------
WDir34010360350350350360340340340340350330
WSpd11 19 17 21 19 24 23 21 21 19 19 19 21
WGst-- -- 25 -- -- 32 30 -- -- -- 25 -- 25
Raw hourly METARs
KDEN 211553Z 34011KT 1/2SM R35L/3500V4500FT SN FZFG VV012 M03/M05 A2982 RMK AO2 TWR VIS 3/4 SLP114 P0003 T10331050
KDEN 211705Z 01019KT 1/2SM R35L/4000VP6000FT -SN FZFG FEW005 OVC013 M03/M06 A2983 RMK AO2 P0001 T10331056
KDEN 211753Z 36017G25KT 1/2SM R35L/2400V3500FT SN FZFG FEW006 OVC012 M04/M06 A2983 RMK AO2 SLP120 P0002 60022 T10391056 11033 21039 51008
KDEN 211900Z 35021KT 1/2SM R35L/3500VP6000FT -SN BR FEW006 BKN012 OVC030 M04/M06 A2981 RMK AO2 PK WND 35027/1854 SFC VIS 3/4 P0000 T10391061
KDEN 211953Z 35019KT 1/2SM R35L/3500V4000FT -SN FZFG FEW006 OVC014 M04/M06 A2982 RMK AO2 PK WND 34028/1943 SLP122 P0000 T10391061
KDEN 212053Z 35024G32KT 1/2SM R35L/4000V5000FT -SN FZFG FEW008 OVC014 M04/M07 A2984 RMK AO2 PK WND 35032/2044 SLP128 P0000 60001 T10441067 53004
KDEN 212153Z 36023G30KT 1SM R35L/P6000FT -SN BR SCT008 BKN012 OVC023 M05/M07 A2987 RMK AO2 PK WND 36033/2128 TWR VIS 1 1/2 SLP141 P0000 T10501072
KDEN 212253Z 34021KT 1 1/2SM -SN BR FEW009 BKN015 OVC036 M04/M07 A2989 RMK AO2 PK WND 36029/2156 SFC VIS 1 3/4 SLP147 P0000 T10441067
KDEN 212353Z 34021KT 1 3/4SM -SN FEW015 BKN036 OVC047 M04/M07 A2991 RMK AO2 PK WND 34027/2346 TWR VIS 2 1/2 SLP157 P0000 60001 T10441072 11039 21050 51021
KDEN 220053Z 34019KT 5SM -SN FEW017 OVC040 M04/M08 A2993 RMK AO2 PK WND 35028/0005 SLP164 P0000 T10441078
KDEN 220153Z 34019G25KT 9SM FEW015 OVC045 M04/M08 A2994 RMK AO2 PK WND 34030/0101 SLP165 SNE44 P0000 T10441083
KDEN 220253Z 35019KT 10SM FEW020 BKN055 OVC220 M05/M09 A2994 RMK AO2 SLP170 SNE44 60000 T10501094 51008
KDEN 220353Z 33021G25KT 10SM FEW020 BKN044 OVC056 M04/M10 A2994 RMK AO2 SLP164 T10391100